Time;durP1;ratioP1;P1;durP2;ratioP2;P2;SDS_P1;SDS_P2;PMS_P1;PMS_P2;Temp;Humidity;BMP_temperature;BMP_pressure;BME280_temperature;BME280_humidity;BME280_pressure;Samples;Min_cycle;Max_cycle;Signal;HPM_P1;HPM_P2
2021/03/22 00:02:11;;;;;;;;;;;2.10;97.00;;;;;;5087259;28;19919;-70
2021/03/22 00:04:37;;;;;;;;;;;2.10;97.00;;;;;;5077657;28;19919;-69
2021/03/22 00:07:02;;;;;;;;;;;2.10;96.90;;;;;;5086310;28;19947;-69
2021/03/22 00:09:28;;;;;;;;;;;2.10;97.10;;;;;;5085884;28;19950;-70
2021/03/22 00:11:53;;;;;;;;;;;2.10;97.10;;;;;;5083309;28;20204;-69
2021/03/22 00:14:19;;;;;;;;;;;2.10;97.10;;;;;;5063484;28;19912;-71
2021/03/22 00:16:46;;;;;;;;;;;2.00;97.00;;;;;;5080661;28;19918;-71
2021/03/22 00:19:11;;;;;;;;;;;2.10;97.00;;;;;;5077479;28;19912;-70
2021/03/22 00:21:37;;;;;;;;;;;2.10;97.10;;;;;;5082061;28;19916;-71
2021/03/22 00:24:02;;;;;;;;;;;2.10;96.90;;;;;;5075032;28;19919;-69
2021/03/22 00:26:28;;;;;;;;;;;2.10;97.00;;;;;;5080129;28;19916;-71
2021/03/22 00:28:55;;;;;;;;;;;2.10;97.00;;;;;;5094132;28;19955;-70
2021/03/22 00:31:21;;;;;;;;;;;2.10;97.00;;;;;;5084914;28;19916;-70
2021/03/22 00:33:46;;;;;;;;;;;2.00;96.90;;;;;;5084541;28;19964;-71
2021/03/22 00:36:12;;;;;;;;;;;2.00;97.00;;;;;;5092156;28;19919;-71
2021/03/22 00:38:37;;;;;;;;;;;2.00;96.90;;;;;;5093933;28;19916;-72
2021/03/22 00:41:03;;;;;;;;;;;2.00;97.00;;;;;;5091749;28;19916;-70
2021/03/22 00:43:29;;;;;;;;;;;2.00;97.10;;;;;;5071249;28;19912;-71
2021/03/22 00:45:57;;;;;;;;;;;1.90;97.20;;;;;;5075492;28;19919;-71
2021/03/22 00:48:24;;;;;;;;;;;1.90;97.30;;;;;;5083506;28;19912;-71
2021/03/22 00:50:49;;;;;;;;;;;1.90;97.30;;;;;;5093761;28;19956;-71
2021/03/22 00:53:16;;;;;;;;;;;1.90;97.40;;;;;;5087716;28;19942;-71
2021/03/22 00:55:41;;;;;;;;;;;1.90;97.40;;;;;;5075036;28;20309;-69
2021/03/22 00:58:07;;;;;;;;;;;1.80;97.40;;;;;;5057434;28;19977;-69
2021/03/22 01:00:38;;;;;;;;;;;1.80;97.40;;;;;;5091057;28;20217;-71
2021/03/22 01:03:05;;;;;;;;;;;1.80;97.50;;;;;;5082677;28;19987;-70
2021/03/22 01:05:31;;;;;;;;;;;1.80;97.60;;;;;;5077899;28;19962;-69
2021/03/22 01:07:56;;;;;;;;;;;1.70;97.50;;;;;;5089575;28;19912;-69
2021/03/22 01:10:24;;;;;;;;;;;1.70;97.70;;;;;;5079618;28;20011;-69
2021/03/22 01:12:50;;;;;;;;;;;1.70;97.80;;;;;;5076270;28;19964;-71
2021/03/22 01:15:16;;;;;;;;;;;1.60;97.70;;;;;;5057575;28;20256;-69
2021/03/22 01:17:42;;;;;;;;;;;1.60;97.80;;;;;;5087079;28;19920;-70
2021/03/22 01:20:11;;;;;;;;;;;1.60;97.90;;;;;;5092805;28;19920;-70
2021/03/22 01:22:37;;;;;;;;;;;1.60;97.90;;;;;;5098133;28;19916;-71
2021/03/22 01:25:05;;;;;;;;;;;1.60;97.80;;;;;;5096710;28;19912;-70
2021/03/22 01:27:30;;;;;;;;;;;1.50;97.90;;;;;;5096416;28;20253;-71
2021/03/22 01:29:56;;;;;;;;;;;1.50;98.00;;;;;;5095636;28;20006;-70
2021/03/22 01:32:21;;;;;;;;;;;1.60;98.00;;;;;;5078763;28;19920;-71
2021/03/22 01:34:47;;;;;;;;;;;1.50;97.90;;;;;;5061681;28;19916;-70
2021/03/22 01:37:12;;;;;;;;;;;1.50;97.90;;;;;;5071065;28;20252;-69
2021/03/22 01:39:38;;;;;;;;;;;1.50;97.90;;;;;;5083132;28;19920;-70
2021/03/22 01:42:13;;;;;;;;;;;1.50;98.00;;;;;;5082174;28;20228;-69
2021/03/22 01:44:41;;;;;;;;;;;1.50;98.00;;;;;;5078737;28;20221;-69
2021/03/22 01:47:14;;;;;;;;;;;1.50;98.00;;;;;;5078294;28;19912;-71
2021/03/22 01:49:41;;;;;;;;;;;1.50;98.00;;;;;;5083599;28;20270;-69
2021/03/22 01:52:08;;;;;;;;;;;1.50;97.90;;;;;;5097124;28;20335;-69
2021/03/22 01:54:34;;;;;;;;;;;1.50;97.90;;;;;;5094140;28;19969;-69
2021/03/22 01:57:29;;;;;;;;;;;1.50;97.80;;;;;;5098446;28;20263;-69
2021/03/22 02:00:01;;;;;;;;;;;1.50;97.90;;;;;;5058511;28;20662;-71
2021/03/22 02:02:27;;;;;;;;;;;1.50;97.90;;;;;;5092383;28;19912;-71
2021/03/22 02:04:52;;;;;;;;;;;1.50;97.90;;;;;;5083865;28;20366;-71
2021/03/22 02:07:21;;;;;;;;;;;1.50;98.00;;;;;;5079638;28;20347;-71
2021/03/22 02:09:46;;;;;;;;;;;1.50;97.90;;;;;;5077012;28;19912;-70
2021/03/22 02:12:16;;;;;;;;;;;1.50;97.80;;;;;;5089222;28;20008;-71
2021/03/22 02:14:42;;;;;;;;;;;1.40;98.00;;;;;;5066688;28;19986;-71
2021/03/22 02:17:10;;;;;;;;;;;1.40;98.00;;;;;;5080575;28;19952;-70
2021/03/22 02:19:54;;;;;;;;;;;1.40;98.00;;;;;;5092542;28;19920;-70
2021/03/22 02:22:26;;;;;;;;;;;1.40;97.90;;;;;;5066630;28;20313;-70
2021/03/22 02:24:54;;;;;;;;;;;1.40;98.00;;;;;;5086690;28;19912;-71
2021/03/22 02:27:38;;;;;;;;;;;1.30;98.00;;;;;;5061225;28;20309;-71
2021/03/22 02:30:13;;;;;;;;;;;1.30;98.00;;;;;;5077720;28;19920;-70
2021/03/22 02:32:41;;;;;;;;;;;1.30;98.00;;;;;;5080387;28;19916;-71
2021/03/22 02:35:27;;;;;;;;;;;1.30;98.00;;;;;;5094932;28;19919;-70
2021/03/22 02:38:13;;;;;;;;;;;1.20;98.00;;;;;;5094326;28;20276;-70
2021/03/22 02:40:45;;;;;;;;;;;1.30;98.00;;;;;;5093946;28;20304;-69
2021/03/22 02:43:11;;;;;;;;;;;1.30;98.00;;;;;;5085154;28;19929;-70
2021/03/22 02:45:39;;;;;;;;;;;1.20;98.00;;;;;;5077226;28;19913;-70
2021/03/22 02:48:05;;;;;;;;;;;1.30;98.00;;;;;;5080938;28;20008;-70
2021/03/22 02:50:39;;;;;;;;;;;1.20;98.00;;;;;;5061255;28;19920;-70
2021/03/22 02:53:04;;;;;;;;;;;1.20;98.00;;;;;;5077076;28;19995;-70
2021/03/22 02:55:48;;;;;;;;;;;1.20;98.00;;;;;;5085174;28;20010;-70
2021/03/22 02:58:16;;;;;;;;;;;1.20;98.00;;;;;;5065025;28;19916;-71
2021/03/22 03:00:44;;;;;;;;;;;1.20;98.00;;;;;;5062353;28;19925;-71
2021/03/22 03:03:11;;;;;;;;;;;1.10;98.00;;;;;;5085230;28;19918;-70
2021/03/22 03:05:37;;;;;;;;;;;1.10;98.00;;;;;;5076561;28;19916;-71
2021/03/22 03:08:05;;;;;;;;;;;1.20;98.00;;;;;;5082606;28;19912;-71
2021/03/22 03:10:31;;;;;;;;;;;1.20;98.00;;;;;;5084655;28;19921;-69
2021/03/22 03:12:57;;;;;;;;;;;1.20;98.00;;;;;;5077890;28;19919;-70
2021/03/22 03:15:23;;;;;;;;;;;1.20;98.00;;;;;;5080110;28;19920;-71
2021/03/22 03:17:54;;;;;;;;;;;1.20;98.00;;;;;;5076921;28;19908;-71
2021/03/22 03:20:21;;;;;;;;;;;1.10;98.00;;;;;;5092184;28;21321;-70
2021/03/22 03:22:46;;;;;;;;;;;1.10;98.00;;;;;;5085193;28;19912;-71
2021/03/22 03:25:12;;;;;;;;;;;1.10;98.00;;;;;;5089687;28;20308;-71
2021/03/22 03:27:38;;;;;;;;;;;1.20;98.00;;;;;;5081974;28;20021;-70
2021/03/22 03:30:08;;;;;;;;;;;1.20;98.00;;;;;;5079608;28;19913;-71
2021/03/22 03:32:33;;;;;;;;;;;1.20;98.00;;;;;;5060692;28;19924;-70
2021/03/22 03:34:59;;;;;;;;;;;1.20;98.00;;;;;;5076664;28;19931;-69
2021/03/22 03:37:25;;;;;;;;;;;1.20;98.00;;;;;;5081392;28;19912;-69
2021/03/22 03:39:50;;;;;;;;;;;1.20;98.00;;;;;;5078080;28;20476;-70
2021/03/22 03:42:16;;;;;;;;;;;1.10;98.00;;;;;;5083481;28;20028;-71
2021/03/22 03:44:41;;;;;;;;;;;1.10;98.00;;;;;;5077975;28;19913;-70
2021/03/22 03:47:07;;;;;;;;;;;1.10;98.00;;;;;;5081201;28;20501;-70
2021/03/22 03:49:34;;;;;;;;;;;1.10;98.00;;;;;;5078545;28;20332;-70
2021/03/22 03:51:59;;;;;;;;;;;1.20;98.00;;;;;;5085761;28;19919;-69
2021/03/22 03:54:25;;;;;;;;;;;1.10;98.00;;;;;;5074946;28;19909;-70
2021/03/22 03:56:50;;;;;;;;;;;1.10;98.00;;;;;;5079863;28;19916;-70
2021/03/22 03:59:16;;;;;;;;;;;1.10;98.00;;;;;;5083212;28;20323;-69
2021/03/22 04:01:41;;;;;;;;;;;1.10;98.00;;;;;;5076141;28;19920;-69
2021/03/22 04:04:07;;;;;;;;;;;1.10;98.00;;;;;;5080287;28;19994;-70
2021/03/22 04:06:33;;;;;;;;;;;1.10;98.00;;;;;;5085947;28;19916;-70
2021/03/22 04:09:04;;;;;;;;;;;1.00;98.00;;;;;;5100625;28;19916;-70
2021/03/22 04:11:32;;;;;;;;;;;1.00;98.00;;;;;;5087731;28;19916;-71
2021/03/22 04:13:58;;;;;;;;;;;1.10;98.00;;;;;;5093332;28;19925;-69
2021/03/22 04:16:24;;;;;;;;;;;1.00;98.00;;;;;;5081479;28;19966;-71
2021/03/22 04:18:50;;;;;;;;;;;1.00;98.00;;;;;;5082836;28;20003;-70
2021/03/22 04:21:21;;;;;;;;;;;1.00;98.00;;;;;;5081644;28;20003;-71
2021/03/22 04:23:47;;;;;;;;;;;1.00;98.00;;;;;;5085096;28;19913;-69
2021/03/22 04:26:13;;;;;;;;;;;1.00;98.00;;;;;;5094329;28;20002;-70
2021/03/22 04:28:40;;;;;;;;;;;1.00;98.00;;;;;;5089767;28;19952;-71
2021/03/22 04:31:05;;;;;;;;;;;1.00;98.00;;;;;;5093550;28;19920;-69
2021/03/22 04:33:32;;;;;;;;;;;1.00;98.00;;;;;;5075509;28;20217;-70
2021/03/22 04:35:58;;;;;;;;;;;1.00;98.00;;;;;;5076527;28;19916;-69
2021/03/22 04:38:23;;;;;;;;;;;1.00;98.00;;;;;;5074275;28;19908;-70
2021/03/22 04:40:49;;;;;;;;;;;1.00;98.00;;;;;;5084521;28;19917;-70
2021/03/22 04:43:15;;;;;;;;;;;0.90;98.00;;;;;;5075273;28;19952;-68
2021/03/22 04:45:40;;;;;;;;;;;0.90;98.00;;;;;;5079313;28;19920;-70
2021/03/22 04:48:06;;;;;;;;;;;1.00;98.00;;;;;;5083352;28;20010;-69
2021/03/22 04:50:32;;;;;;;;;;;1.00;98.00;;;;;;5075561;28;20347;-69
2021/03/22 04:52:58;;;;;;;;;;;0.90;98.00;;;;;;5079337;28;20317;-69
2021/03/22 04:55:24;;;;;;;;;;;0.90;98.00;;;;;;5070514;28;19912;-71
2021/03/22 04:57:49;;;;;;;;;;;0.90;98.00;;;;;;5094789;28;19916;-71
2021/03/22 05:00:37;;;;;;;;;;;0.90;98.00;;;;;;5080857;28;19920;-72
2021/03/22 05:03:03;;;;;;;;;;;1.00;98.00;;;;;;5087145;28;19981;-71
2021/03/22 05:05:29;;;;;;;;;;;1.00;98.00;;;;;;5093126;28;19916;-71
2021/03/22 05:07:54;;;;;;;;;;;1.00;98.00;;;;;;5097253;28;19920;-71
2021/03/22 05:10:26;;;;;;;;;;;0.90;98.00;;;;;;5093632;28;20272;-72
2021/03/22 05:12:51;;;;;;;;;;;0.90;98.00;;;;;;5097347;28;20229;-71
2021/03/22 05:15:17;;;;;;;;;;;0.90;98.00;;;;;;5069191;28;19961;-71
2021/03/22 05:17:43;;;;;;;;;;;0.90;98.00;;;;;;5084725;28;19965;-70
2021/03/22 05:20:18;;;;;;;;;;;0.90;98.00;;;;;;5082096;28;19929;-70
2021/03/22 05:22:44;;;;;;;;;;;0.90;98.00;;;;;;5084689;28;20194;-71
2021/03/22 05:25:09;;;;;;;;;;;0.90;98.00;;;;;;5061847;28;19912;-71
2021/03/22 05:27:38;;;;;;;;;;;1.00;98.00;;;;;;5084359;28;19916;-71
2021/03/22 05:30:07;;;;;;;;;;;1.00;98.00;;;;;;5080410;28;20295;-71
2021/03/22 05:32:36;;;;;;;;;;;0.90;98.00;;;;;;5088647;28;19912;-71
2021/03/22 05:35:03;;;;;;;;;;;0.90;98.00;;;;;;5086026;28;19920;-71
2021/03/22 05:37:29;;;;;;;;;;;1.00;98.00;;;;;;5082299;28;20006;-71
2021/03/22 05:39:55;;;;;;;;;;;1.00;98.00;;;;;;5089988;28;20363;-71
2021/03/22 05:42:28;;;;;;;;;;;1.00;98.00;;;;;;5089011;28;19952;-71
2021/03/22 05:44:53;;;;;;;;;;;1.00;98.00;;;;;;5082735;28;19928;-71
2021/03/22 05:47:31;;;;;;;;;;;1.00;98.00;;;;;;5074584;28;21232;-70
2021/03/22 05:49:56;;;;;;;;;;;1.00;98.00;;;;;;5058922;28;19977;-71
2021/03/22 05:52:33;;;;;;;;;;;1.00;98.00;;;;;;5068751;28;19916;-72
2021/03/22 05:55:10;;;;;;;;;;;1.00;98.00;;;;;;5077915;28;20223;-71
2021/03/22 05:57:42;;;;;;;;;;;1.00;98.00;;;;;;5060326;28;20292;-71
2021/03/22 06:00:27;;;;;;;;;;;1.10;98.00;;;;;;5090430;28;19959;-72
2021/03/22 06:03:01;;;;;;;;;;;1.10;98.00;;;;;;5093051;28;19943;-71
2021/03/22 06:05:48;;;;;;;;;;;1.10;98.00;;;;;;5082130;28;19920;-71
2021/03/22 06:08:20;;;;;;;;;;;1.10;98.00;;;;;;5070120;28;19920;-70
2021/03/22 06:10:53;;;;;;;;;;;1.10;98.00;;;;;;5083356;28;19913;-70
2021/03/22 06:13:22;;;;;;;;;;;1.10;98.00;;;;;;5076622;28;20011;-70
2021/03/22 06:16:00;;;;;;;;;;;1.20;98.00;;;;;;5082906;28;19919;-70
2021/03/22 06:18:34;;;;;;;;;;;1.20;98.00;;;;;;5087662;28;19915;-70
2021/03/22 06:21:07;;;;;;;;;;;1.20;98.00;;;;;;5094149;28;19916;-71
2021/03/22 06:23:51;;;;;;;;;;;1.20;97.80;;;;;;5078580;28;20338;-70
2021/03/22 06:26:35;;;;;;;;;;;1.20;98.00;;;;;;5063111;28;19912;-70
2021/03/22 06:29:23;;;;;;;;;;;1.20;98.00;;;;;;5089026;28;19912;-71
2021/03/22 06:31:50;;;;;;;;;;;1.20;98.00;;;;;;5077303;28;20301;-69
2021/03/22 06:34:20;;;;;;;;;;;1.10;98.00;;;;;;5097680;28;20275;-70
2021/03/22 06:36:46;;;;;;;;;;;1.10;98.00;;;;;;5075367;28;20182;-70
2021/03/22 06:39:12;;;;;;;;;;;1.10;97.90;;;;;;5083506;28;19939;-69
2021/03/22 06:41:43;;;;;;;;;;;1.10;97.60;;;;;;5079139;28;19920;-68
2021/03/22 06:44:16;;;;;;;;;;;1.20;97.70;;;;;;5076013;28;19990;-69
2021/03/22 06:47:04;;;;;;;;;;;1.20;97.50;;;;;;5077036;28;20356;-70
2021/03/22 06:49:31;;;;;;;;;;;1.20;97.00;;;;;;5097274;28;19916;-70
2021/03/22 06:52:04;;;;;;;;;;;1.30;96.30;;;;;;5095551;28;20216;-69
2021/03/22 06:54:33;;;;;;;;;;;1.30;96.00;;;;;;5063228;28;20302;-72
2021/03/22 06:57:25;;;;;;;;;;;1.30;96.00;;;;;;5075637;28;19923;-72
2021/03/22 07:00:12;;;;;;;;;;;1.40;95.50;;;;;;5088906;28;20301;-72
2021/03/22 07:02:43;;;;;;;;;;;1.40;95.40;;;;;;5085056;28;19912;-71
2021/03/22 07:05:32;;;;;;;;;;;1.40;95.40;;;;;;5060411;28;20209;-71
2021/03/22 07:08:01;;;;;;;;;;;1.50;95.30;;;;;;5073202;28;19912;-71
2021/03/22 07:10:32;;;;;;;;;;;1.50;95.00;;;;;;5089688;28;19973;-72
2021/03/22 07:13:13;;;;;;;;;;;1.50;94.90;;;;;;5067355;28;19916;-71
2021/03/22 07:15:39;;;;;;;;;;;1.60;94.90;;;;;;5070425;28;19917;-71
2021/03/22 07:18:13;;;;;;;;;;;1.60;94.70;;;;;;5091983;28;19919;-70
2021/03/22 07:20:47;;;;;;;;;;;1.70;94.40;;;;;;5089175;28;19978;-70
2021/03/22 07:23:28;;;;;;;;;;;1.70;93.70;;;;;;5087498;28;19992;-70
2021/03/22 07:26:01;;;;;;;;;;;1.70;92.80;;;;;;5083559;28;20006;-70
2021/03/22 07:28:42;;;;;;;;;;;1.80;92.60;;;;;;5093634;28;19919;-69
2021/03/22 07:31:15;;;;;;;;;;;1.80;92.90;;;;;;5087627;28;20288;-70
2021/03/22 07:33:46;;;;;;;;;;;1.90;92.50;;;;;;5081456;28;20300;-70
2021/03/22 07:36:21;;;;;;;;;;;2.00;91.80;;;;;;5078229;28;20005;-71
2021/03/22 07:38:52;;;;;;;;;;;2.00;91.90;;;;;;5074859;28;20209;-69
2021/03/22 07:41:20;;;;;;;;;;;2.10;92.10;;;;;;5091343;28;20308;-70
2021/03/22 07:44:06;;;;;;;;;;;2.20;91.60;;;;;;5089523;28;19923;-70
2021/03/22 07:46:46;;;;;;;;;;;2.10;91.80;;;;;;5077132;28;19912;-70
2021/03/22 07:49:33;;;;;;;;;;;2.20;92.40;;;;;;5082412;28;20046;-71
2021/03/22 07:52:19;;;;;;;;;;;2.20;92.70;;;;;;5090110;28;19915;-71
2021/03/22 07:54:47;;;;;;;;;;;2.20;93.60;;;;;;5081028;28;19908;-71
2021/03/22 07:57:13;;;;;;;;;;;2.20;94.00;;;;;;5074802;28;19927;-72
2021/03/22 07:59:41;;;;;;;;;;;2.20;94.10;;;;;;5091365;28;19924;-71
2021/03/22 08:02:30;;;;;;;;;;;2.30;94.20;;;;;;5076328;28;19908;-71
2021/03/22 08:05:03;;;;;;;;;;;2.30;94.50;;;;;;5084224;28;19916;-72
2021/03/22 08:07:46;;;;;;;;;;;2.40;94.60;;;;;;5091839;28;20266;-71
2021/03/22 08:10:21;;;;;;;;;;;2.40;94.60;;;;;;5074538;28;19912;-70
2021/03/22 08:12:46;;;;;;;;;;;2.30;94.50;;;;;;5077156;28;19908;-70
2021/03/22 08:15:15;;;;;;;;;;;2.30;95.10;;;;;;5064912;28;19916;-70
2021/03/22 08:17:53;;;;;;;;;;;2.30;94.90;;;;;;5083006;28;19920;-71
2021/03/22 08:20:19;;;;;;;;;;;2.40;95.10;;;;;;5095864;28;19989;-71
2021/03/22 08:22:52;;;;;;;;;;;2.30;95.10;;;;;;5085384;28;19909;-70
2021/03/22 08:25:25;;;;;;;;;;;2.30;95.20;;;;;;5074464;28;19920;-70
2021/03/22 08:27:57;;;;;;;;;;;2.20;95.30;;;;;;5075681;28;20007;-70
2021/03/22 08:30:26;;;;;;;;;;;2.20;95.40;;;;;;5086265;28;19912;-71
2021/03/22 08:33:03;;;;;;;;;;;2.10;95.20;;;;;;5079853;28;20329;-71
2021/03/22 08:35:32;;;;;;;;;;;2.20;95.80;;;;;;5071078;28;20228;-71
2021/03/22 08:37:59;;;;;;;;;;;2.20;95.60;;;;;;5069814;28;19955;-70
2021/03/22 08:40:40;;;;;;;;;;;2.00;95.60;;;;;;5075532;28;19989;-71
2021/03/22 08:43:08;;;;;;;;;;;1.90;95.80;;;;;;5088151;28;20003;-71
2021/03/22 08:45:42;;;;;;;;;;;1.90;96.40;;;;;;5079210;28;19946;-70
2021/03/22 08:48:15;;;;;;;;;;;1.90;96.50;;;;;;5092061;28;19965;-70
2021/03/22 08:50:41;;;;;;;;;;;1.90;97.00;;;;;;5064704;28;19973;-72
2021/03/22 08:53:09;;;;;;;;;;;2.10;96.50;;;;;;5080045;28;20007;-71
2021/03/22 08:55:47;;;;;;;;;;;2.30;96.60;;;;;;5078631;28;19912;-71
2021/03/22 08:58:26;;;;;;;;;;;2.50;96.00;;;;;;5075127;28;19917;-71
2021/03/22 09:00:54;;;;;;;;;;;2.70;95.00;;;;;;5074622;28;19920;-71
2021/03/22 09:03:27;;;;;;;;;;;2.80;94.20;;;;;;5083944;28;19920;-70
2021/03/22 09:06:13;;;;;;;;;;;2.80;93.90;;;;;;5075187;28;19919;-71
2021/03/22 09:08:41;;;;;;;;;;;2.80;93.10;;;;;;5095783;28;19914;-70
2021/03/22 09:11:15;;;;;;;;;;;2.80;93.40;;;;;;5078936;28;20258;-71
2021/03/22 09:14:01;;;;;;;;;;;2.90;93.10;;;;;;5062172;28;20316;-71
2021/03/22 09:16:35;;;;;;;;;;;2.80;92.80;;;;;;5109269;28;20367;-71
2021/03/22 09:19:10;;;;;;;;;;;2.90;93.70;;;;;;5094614;28;19912;-71
2021/03/22 09:21:40;;;;;;;;;;;3.30;92.30;;;;;;5089835;28;19912;-72
2021/03/22 09:24:26;;;;;;;;;;;3.40;91.60;;;;;;5117490;28;20026;-72
2021/03/22 09:26:58;;;;;;;;;;;3.30;91.70;;;;;;5109558;28;19909;-70
2021/03/22 09:29:44;;;;;;;;;;;3.00;91.00;;;;;;5078435;28;19916;-72
2021/03/22 09:32:22;;;;;;;;;;;2.90;92.20;;;;;;5042732;28;20334;-72
2021/03/22 09:34:48;;;;;;;;;;;2.80;91.70;;;;;;5098898;28;19995;-72
2021/03/22 09:37:32;;;;;;;;;;;2.80;92.50;;;;;;5093990;28;19931;-69
2021/03/22 09:39:58;;;;;;;;;;;2.70;92.40;;;;;;5077423;28;19916;-71
2021/03/22 09:42:24;;;;;;;;;;;2.80;92.80;;;;;;5066089;28;20362;-71
2021/03/22 09:44:53;;;;;;;;;;;2.90;92.10;;;;;;5087224;28;19916;-71
2021/03/22 09:47:20;;;;;;;;;;;2.90;92.10;;;;;;5079266;28;19912;-70
2021/03/22 09:49:58;;;;;;;;;;;3.00;91.90;;;;;;5092571;28;20259;-71
2021/03/22 09:52:25;;;;;;;;;;;3.20;90.30;;;;;;5073565;28;19908;-70
2021/03/22 09:54:51;;;;;;;;;;;3.50;90.20;;;;;;5078555;28;19923;-71
2021/03/22 09:57:25;;;;;;;;;;;4.00;89.40;;;;;;5060568;28;21620;-71
2021/03/22 10:00:05;;;;;;;;;;;4.50;86.90;;;;;;5088023;28;19921;-72
2021/03/22 10:02:37;;;;;;;;;;;4.70;85.10;;;;;;5095589;28;19912;-71
2021/03/22 10:05:41;;;;;;;;;;;4.90;83.30;;;;;;5096331;28;19919;-70
2021/03/22 10:08:18;;;;;;;;;;;4.90;83.80;;;;;;5009125;28;19989;-72
2021/03/22 10:10:57;;;;;;;;;;;4.40;84.50;;;;;;5013728;28;20200;-71
2021/03/22 10:13:34;;;;;;;;;;;4.10;85.70;;;;;;5061790;28;19919;-70
2021/03/22 10:16:12;;;;;;;;;;;4.00;86.60;;;;;;5090529;28;20213;-72
2021/03/22 10:18:41;;;;;;;;;;;3.80;86.90;;;;;;5090460;28;19958;-70
2021/03/22 10:21:14;;;;;;;;;;;3.90;86.90;;;;;;5063871;28;19942;-70
2021/03/22 10:23:51;;;;;;;;;;;3.90;87.60;;;;;;5091298;28;20232;-70
2021/03/22 10:26:37;;;;;;;;;;;3.70;86.70;;;;;;5093792;28;20221;-70
2021/03/22 10:29:12;;;;;;;;;;;3.60;87.40;;;;;;5078860;28;19923;-70
2021/03/22 10:31:38;;;;;;;;;;;3.40;88.30;;;;;;5097773;28;19912;-71
2021/03/22 10:34:03;;;;;;;;;;;3.10;89.20;;;;;;5093781;28;20327;-69
2021/03/22 10:36:39;;;;;;;;;;;2.80;92.10;;;;;;5078042;28;19919;-69
2021/03/22 10:39:06;;;;;;;;;;;2.60;93.40;;;;;;5092144;28;19912;-69
2021/03/22 10:41:37;;;;;;;;;;;2.50;93.80;;;;;;5079529;28;20317;-69
2021/03/22 10:44:20;;;;;;;;;;;2.60;93.40;;;;;;5083204;28;19912;-72
2021/03/22 10:46:45;;;;;;;;;;;2.70;94.20;;;;;;5085174;28;19935;-71
2021/03/22 10:49:14;;;;;;;;;;;2.80;93.80;;;;;;5077198;28;19920;-71
2021/03/22 10:51:45;;;;;;;;;;;3.00;93.10;;;;;;5069445;28;19921;-70
2021/03/22 10:54:21;;;;;;;;;;;3.10;92.60;;;;;;5086750;28;19938;-71
2021/03/22 10:56:59;;;;;;;;;;;3.10;92.70;;;;;;5096875;28;20362;-70
2021/03/22 10:59:26;;;;;;;;;;;3.20;90.70;;;;;;5057869;28;19913;-71
2021/03/22 11:01:54;;;;;;;;;;;3.10;91.30;;;;;;5092049;28;19912;-73
2021/03/22 11:04:38;;;;;;;;;;;3.30;90.80;;;;;;5081397;28;20118;-71
2021/03/22 11:07:24;;;;;;;;;;;3.30;90.30;;;;;;5091523;28;19912;-70
2021/03/22 11:09:57;;;;;;;;;;;3.30;90.80;;;;;;5076798;28;20363;-71
2021/03/22 11:12:23;;;;;;;;;;;3.50;89.50;;;;;;5094549;28;19943;-70
2021/03/22 11:14:52;;;;;;;;;;;3.30;89.20;;;;;;5067355;28;19948;-70
2021/03/22 11:17:19;;;;;;;;;;;3.30;90.00;;;;;;5084699;28;19912;-71
2021/03/22 11:19:46;;;;;;;;;;;3.30;89.60;;;;;;5072909;28;20288;-70
2021/03/22 11:22:34;;;;;;;;;;;3.50;89.70;;;;;;5095855;28;19912;-71
2021/03/22 11:25:00;;;;;;;;;;;3.60;88.00;;;;;;5067103;28;19916;-71
2021/03/22 11:27:46;;;;;;;;;;;3.70;87.80;;;;;;5093403;28;20011;-71
2021/03/22 11:30:12;;;;;;;;;;;3.70;88.10;;;;;;5076773;28;20221;-71
2021/03/22 11:32:44;;;;;;;;;;;3.80;87.10;;;;;;5076224;28;20278;-72
2021/03/22 11:35:30;;;;;;;;;;;3.90;87.20;;;;;;5076441;28;20221;-71
2021/03/22 11:38:00;;;;;;;;;;;4.00;87.20;;;;;;5087686;28;19916;-72
2021/03/22 11:40:27;;;;;;;;;;;4.00;86.10;;;;;;5088808;28;19916;-72
2021/03/22 11:43:11;;;;;;;;;;;4.20;85.90;;;;;;5080684;28;19912;-71
2021/03/22 11:45:41;;;;;;;;;;;4.60;85.80;;;;;;5094660;28;19965;-72
2021/03/22 11:48:21;;;;;;;;;;;4.50;83.10;;;;;;5070928;28;19913;-71
2021/03/22 11:50:58;;;;;;;;;;;4.40;83.70;;;;;;5072019;28;20248;-70
2021/03/22 11:53:25;;;;;;;;;;;4.40;84.20;;;;;;5071916;28;20205;-70
2021/03/22 11:55:52;;;;;;;;;;;4.30;84.40;;;;;;5072757;28;20259;-72
2021/03/22 11:58:32;;;;;;;;;;;4.30;83.80;;;;;;5057972;28;20352;-69
2021/03/22 12:01:16;;;;;;;;;;;4.30;84.00;;;;;;5059647;28;19955;-72
2021/03/22 12:03:42;;;;;;;;;;;4.40;83.60;;;;;;5058025;28;20027;-70
2021/03/22 12:06:08;;;;;;;;;;;4.20;83.80;;;;;;5062182;28;19917;-70
2021/03/22 12:08:36;;;;;;;;;;;4.20;83.80;;;;;;5056484;28;20704;-71
2021/03/22 12:11:04;;;;;;;;;;;4.20;83.70;;;;;;5058844;28;19913;-70
2021/03/22 12:13:29;;;;;;;;;;;4.20;84.20;;;;;;5070919;28;19916;-70
2021/03/22 12:15:55;;;;;;;;;;;4.20;83.60;;;;;;5070870;28;19919;-70
2021/03/22 12:18:32;;;;;;;;;;;4.10;83.90;;;;;;5057174;28;19920;-71
2021/03/22 12:20:58;;;;;;;;;;;3.80;84.20;;;;;;5066400;28;19977;-70
2021/03/22 12:23:24;;;;;;;;;;;3.70;85.20;;;;;;5059883;28;19916;-70
2021/03/22 12:25:50;;;;;;;;;;;3.70;85.60;;;;;;5070927;28;20019;-69
2021/03/22 12:28:16;;;;;;;;;;;3.60;85.10;;;;;;5067979;28;19913;-69
2021/03/22 12:30:41;;;;;;;;;;;3.50;85.60;;;;;;5050273;28;19913;-70
2021/03/22 12:33:14;;;;;;;;;;;3.60;85.70;;;;;;5043143;28;19913;-70
2021/03/22 12:35:39;;;;;;;;;;;3.60;86.30;;;;;;5066022;28;19923;-68
2021/03/22 12:38:09;;;;;;;;;;;3.70;85.80;;;;;;5062828;28;19917;-71
2021/03/22 12:40:34;;;;;;;;;;;3.90;85.00;;;;;;5055912;28;19935;-69
2021/03/22 12:43:00;;;;;;;;;;;4.10;85.10;;;;;;5044615;28;19920;-70
2021/03/22 12:45:27;;;;;;;;;;;4.30;84.20;;;;;;5043689;28;19963;-70
2021/03/22 12:47:54;;;;;;;;;;;4.60;82.80;;;;;;5063066;28;19916;-70
2021/03/22 12:50:22;;;;;;;;;;;4.80;82.80;;;;;;5075194;28;19920;-69
2021/03/22 12:52:49;;;;;;;;;;;4.80;82.10;;;;;;5065754;28;19916;-70
2021/03/22 12:55:15;;;;;;;;;;;4.80;81.90;;;;;;5057339;28;20297;-70
2021/03/22 12:57:40;;;;;;;;;;;4.60;81.90;;;;;;5076711;28;19916;-70
2021/03/22 13:00:06;;;;;;;;;;;4.60;82.20;;;;;;5078325;28;19928;-70
2021/03/22 13:02:33;;;;;;;;;;;4.60;82.90;;;;;;5081133;28;19919;-70
2021/03/22 13:04:59;;;;;;;;;;;4.60;81.80;;;;;;5087216;28;20217;-68
2021/03/22 13:07:28;;;;;;;;;;;4.50;82.00;;;;;;5076531;28;19916;-69
2021/03/22 13:09:53;;;;;;;;;;;4.40;82.00;;;;;;5073180;28;20009;-69
2021/03/22 13:12:22;;;;;;;;;;;4.40;82.40;;;;;;5089469;28;19984;-70
2021/03/22 13:14:48;;;;;;;;;;;4.50;81.30;;;;;;5080057;28;19919;-69
2021/03/22 13:17:14;;;;;;;;;;;4.50;81.90;;;;;;5074004;28;19920;-69
2021/03/22 13:19:40;;;;;;;;;;;4.50;81.40;;;;;;5083671;28;19923;-70
2021/03/22 13:22:07;;;;;;;;;;;4.50;81.70;;;;;;5088803;28;19913;-70
2021/03/22 13:24:32;;;;;;;;;;;4.30;81.50;;;;;;5084217;28;19912;-70
2021/03/22 13:26:58;;;;;;;;;;;4.10;82.40;;;;;;5060981;28;19916;-69
2021/03/22 13:29:23;;;;;;;;;;;4.10;82.70;;;;;;5065484;28;19912;-68
2021/03/22 13:31:49;;;;;;;;;;;4.00;82.80;;;;;;5097234;28;19991;-69
2021/03/22 13:34:15;;;;;;;;;;;4.00;83.40;;;;;;5089266;28;19913;-69
2021/03/22 13:36:42;;;;;;;;;;;4.10;83.10;;;;;;5085737;28;19955;-69
2021/03/22 13:39:07;;;;;;;;;;;4.30;82.40;;;;;;5081727;28;19974;-70
2021/03/22 13:41:35;;;;;;;;;;;4.50;81.80;;;;;;5090035;28;19920;-70
2021/03/22 13:44:02;;;;;;;;;;;4.70;81.70;;;;;;5081858;28;19916;-70
2021/03/22 13:46:29;;;;;;;;;;;4.60;81.30;;;;;;5083096;28;19912;-69
2021/03/22 13:48:55;;;;;;;;;;;4.50;81.70;;;;;;5081361;28;20213;-67
2021/03/22 13:51:24;;;;;;;;;;;4.40;81.90;;;;;;5088602;28;19912;-68
2021/03/22 13:53:49;;;;;;;;;;;4.40;82.60;;;;;;5095662;28;19923;-70
2021/03/22 13:56:15;;;;;;;;;;;4.60;82.90;;;;;;5089766;28;19913;-73
2021/03/22 13:58:40;;;;;;;;;;;4.60;81.50;;;;;;5088132;28;19909;-70
2021/03/22 14:01:06;;;;;;;;;;;4.60;82.00;;;;;;5077497;28;19921;-70
2021/03/22 14:03:32;;;;;;;;;;;4.30;82.00;;;;;;5093205;28;19908;-70
2021/03/22 14:05:57;;;;;;;;;;;4.20;83.10;;;;;;5094813;28;20002;-70
2021/03/22 14:08:24;;;;;;;;;;;4.00;83.80;;;;;;5084755;28;19908;-71
2021/03/22 14:10:50;;;;;;;;;;;3.80;84.50;;;;;;5083958;28;19916;-70
2021/03/22 14:13:15;;;;;;;;;;;3.80;85.00;;;;;;5077664;28;19920;-71
2021/03/22 14:15:43;;;;;;;;;;;3.70;85.10;;;;;;5077873;28;19908;-69
2021/03/22 14:18:10;;;;;;;;;;;3.70;85.70;;;;;;5086560;28;20220;-71
2021/03/22 14:20:36;;;;;;;;;;;3.70;85.80;;;;;;5088846;28;19912;-71
2021/03/22 14:23:02;;;;;;;;;;;3.70;85.90;;;;;;5090358;28;19912;-71
2021/03/22 14:25:27;;;;;;;;;;;3.50;86.20;;;;;;5076611;28;19911;-70
2021/03/22 14:27:53;;;;;;;;;;;3.40;86.10;;;;;;5091820;28;20242;-70
2021/03/22 14:30:23;;;;;;;;;;;3.40;86.50;;;;;;5089274;28;19915;-70
2021/03/22 14:32:49;;;;;;;;;;;3.30;86.70;;;;;;5069657;28;20043;-69
2021/03/22 14:35:15;;;;;;;;;;;3.30;87.40;;;;;;5091050;28;20002;-70
2021/03/22 14:37:41;;;;;;;;;;;3.30;87.50;;;;;;5080428;28;19920;-71
2021/03/22 14:40:07;;;;;;;;;;;3.30;87.70;;;;;;5073460;28;20249;-70
2021/03/22 14:42:32;;;;;;;;;;;3.30;88.20;;;;;;5087500;28;19912;-70
2021/03/22 14:44:58;;;;;;;;;;;3.30;88.90;;;;;;5076248;28;20359;-70
2021/03/22 14:47:25;;;;;;;;;;;3.40;88.60;;;;;;5087558;28;19912;-71
2021/03/22 14:49:50;;;;;;;;;;;3.50;88.50;;;;;;5070549;28;19916;-69